sensor_id;sensor_type;location;lat;lon;timestamp;P1;durP1;ratioP1;P2;durP2;ratioP2
68449;SDS011;55434;39.570;2.652;2022-11-09T00:00:06;14.27;;;5.20;;
68449;SDS011;55434;39.570;2.652;2022-11-09T00:02:32;10.23;;;4.20;;
68449;SDS011;55434;39.570;2.652;2022-11-09T00:04:57;13.80;;;4.35;;
68449;SDS011;55434;39.570;2.652;2022-11-09T00:07:23;11.90;;;4.40;;
68449;SDS011;55434;39.570;2.652;2022-11-09T00:09:49;12.32;;;4.28;;
68449;SDS011;55434;39.570;2.652;2022-11-09T00:12:14;12.33;;;3.80;;
68449;SDS011;55434;39.570;2.652;2022-11-09T00:14:40;10.30;;;4.95;;
68449;SDS011;55434;39.570;2.652;2022-11-09T00:17:06;12.07;;;4.77;;
68449;SDS011;55434;39.570;2.652;2022-11-09T00:19:31;10.63;;;4.17;;
68449;SDS011;55434;39.570;2.652;2022-11-09T00:21:57;13.87;;;4.60;;
68449;SDS011;55434;39.570;2.652;2022-11-09T00:24:23;9.20;;;4.07;;
68449;SDS011;55434;39.570;2.652;2022-11-09T00:26:48;12.55;;;4.10;;
68449;SDS011;55434;39.570;2.652;2022-11-09T00:29:14;12.05;;;4.82;;
68449;SDS011;55434;39.570;2.652;2022-11-09T00:31:40;9.75;;;4.03;;
68449;SDS011;55434;39.570;2.652;2022-11-09T00:34:06;13.82;;;4.45;;
68449;SDS011;55434;39.570;2.652;2022-11-09T00:36:31;11.90;;;3.90;;
68449;SDS011;55434;39.570;2.652;2022-11-09T00:38:58;14.87;;;4.40;;
68449;SDS011;55434;39.570;2.652;2022-11-09T00:41:24;12.60;;;3.47;;
68449;SDS011;55434;39.570;2.652;2022-11-09T00:43:51;11.55;;;4.13;;
68449;SDS011;55434;39.570;2.652;2022-11-09T00:46:19;17.33;;;3.97;;
68449;SDS011;55434;39.570;2.652;2022-11-09T00:48:46;11.68;;;3.88;;
68449;SDS011;55434;39.570;2.652;2022-11-09T00:51:11;11.83;;;3.97;;
68449;SDS011;55434;39.570;2.652;2022-11-09T00:53:37;9.82;;;3.35;;
68449;SDS011;55434;39.570;2.652;2022-11-09T00:56:04;11.40;;;4.00;;
68449;SDS011;55434;39.570;2.652;2022-11-09T00:58:33;10.70;;;3.60;;
68449;SDS011;55434;39.570;2.652;2022-11-09T01:01:04;9.82;;;3.95;;
68449;SDS011;55434;39.570;2.652;2022-11-09T01:03:41;12.25;;;3.80;;
68449;SDS011;55434;39.570;2.652;2022-11-09T01:06:07;12.40;;;3.20;;
68449;SDS011;55434;39.570;2.652;2022-11-09T01:08:37;10.67;;;3.67;;
68449;SDS011;55434;39.570;2.652;2022-11-09T01:11:04;9.40;;;3.55;;
68449;SDS011;55434;39.570;2.652;2022-11-09T01:13:31;10.23;;;3.63;;
68449;SDS011;55434;39.570;2.652;2022-11-09T01:15:57;13.00;;;3.60;;
68449;SDS011;55434;39.570;2.652;2022-11-09T01:18:23;9.50;;;3.40;;
68449;SDS011;55434;39.570;2.652;2022-11-09T01:20:49;12.97;;;3.60;;
68449;SDS011;55434;39.570;2.652;2022-11-09T01:23:16;11.80;;;3.47;;
68449;SDS011;55434;39.570;2.652;2022-11-09T01:25:42;11.52;;;3.40;;
68449;SDS011;55434;39.570;2.652;2022-11-09T01:28:09;10.75;;;3.30;;
68449;SDS011;55434;39.570;2.652;2022-11-09T01:30:38;12.35;;;3.60;;
68449;SDS011;55434;39.570;2.652;2022-11-09T01:33:06;13.75;;;3.38;;
68449;SDS011;55434;39.570;2.652;2022-11-09T01:35:34;11.10;;;3.47;;
68449;SDS011;55434;39.570;2.652;2022-11-09T01:38:01;9.70;;;3.15;;
68449;SDS011;55434;39.570;2.652;2022-11-09T01:40:29;12.40;;;3.78;;
68449;SDS011;55434;39.570;2.652;2022-11-09T01:42:55;12.50;;;3.53;;
68449;SDS011;55434;39.570;2.652;2022-11-09T01:45:23;9.25;;;2.60;;
68449;SDS011;55434;39.570;2.652;2022-11-09T01:47:53;12.90;;;3.47;;
68449;SDS011;55434;39.570;2.652;2022-11-09T01:50:30;10.50;;;2.92;;
68449;SDS011;55434;39.570;2.652;2022-11-09T01:53:03;9.82;;;3.63;;
68449;SDS011;55434;39.570;2.652;2022-11-09T01:55:32;9.90;;;2.97;;
68449;SDS011;55434;39.570;2.652;2022-11-09T01:58:01;12.05;;;3.20;;
68449;SDS011;55434;39.570;2.652;2022-11-09T02:00:31;12.52;;;3.88;;
68449;SDS011;55434;39.570;2.652;2022-11-09T02:03:01;13.30;;;3.28;;
68449;SDS011;55434;39.570;2.652;2022-11-09T02:05:33;10.40;;;3.15;;
68449;SDS011;55434;39.570;2.652;2022-11-09T02:08:02;11.43;;;3.30;;
68449;SDS011;55434;39.570;2.652;2022-11-09T02:10:47;9.88;;;3.08;;
68449;SDS011;55434;39.570;2.652;2022-11-09T02:13:15;13.38;;;3.70;;
68449;SDS011;55434;39.570;2.652;2022-11-09T02:15:43;9.45;;;4.30;;
68449;SDS011;55434;39.570;2.652;2022-11-09T02:18:09;14.00;;;4.67;;
68449;SDS011;55434;39.570;2.652;2022-11-09T02:20:53;13.48;;;4.80;;
68449;SDS011;55434;39.570;2.652;2022-11-09T02:23:21;16.77;;;3.92;;
68449;SDS011;55434;39.570;2.652;2022-11-09T02:25:52;10.73;;;4.17;;
68449;SDS011;55434;39.570;2.652;2022-11-09T02:28:23;14.27;;;4.03;;
68449;SDS011;55434;39.570;2.652;2022-11-09T02:30:51;14.05;;;4.10;;
68449;SDS011;55434;39.570;2.652;2022-11-09T02:33:20;15.77;;;4.10;;
68449;SDS011;55434;39.570;2.652;2022-11-09T02:35:46;11.27;;;4.35;;
68449;SDS011;55434;39.570;2.652;2022-11-09T02:38:12;17.93;;;5.77;;
68449;SDS011;55434;39.570;2.652;2022-11-09T02:40:39;13.20;;;5.70;;
68449;SDS011;55434;39.570;2.652;2022-11-09T02:43:08;13.93;;;5.72;;
68449;SDS011;55434;39.570;2.652;2022-11-09T02:45:35;15.47;;;5.20;;
68449;SDS011;55434;39.570;2.652;2022-11-09T02:48:01;17.98;;;4.50;;
68449;SDS011;55434;39.570;2.652;2022-11-09T02:50:27;16.35;;;4.78;;
68449;SDS011;55434;39.570;2.652;2022-11-09T02:52:53;11.43;;;4.43;;
68449;SDS011;55434;39.570;2.652;2022-11-09T02:55:18;11.38;;;4.00;;
68449;SDS011;55434;39.570;2.652;2022-11-09T02:57:44;9.60;;;4.40;;
68449;SDS011;55434;39.570;2.652;2022-11-09T03:00:10;11.83;;;3.77;;
68449;SDS011;55434;39.570;2.652;2022-11-09T03:02:36;12.57;;;4.07;;
68449;SDS011;55434;39.570;2.652;2022-11-09T03:05:02;18.27;;;4.20;;
68449;SDS011;55434;39.570;2.652;2022-11-09T03:07:28;12.35;;;4.60;;
68449;SDS011;55434;39.570;2.652;2022-11-09T03:09:53;13.37;;;5.13;;
68449;SDS011;55434;39.570;2.652;2022-11-09T03:12:19;16.48;;;5.13;;
68449;SDS011;55434;39.570;2.652;2022-11-09T03:14:57;15.80;;;4.77;;
68449;SDS011;55434;39.570;2.652;2022-11-09T03:17:25;13.68;;;3.83;;
68449;SDS011;55434;39.570;2.652;2022-11-09T03:19:51;11.10;;;4.95;;
68449;SDS011;55434;39.570;2.652;2022-11-09T03:22:17;13.73;;;5.07;;
68449;SDS011;55434;39.570;2.652;2022-11-09T03:24:43;13.17;;;3.87;;
68449;SDS011;55434;39.570;2.652;2022-11-09T03:27:09;14.95;;;4.50;;
68449;SDS011;55434;39.570;2.652;2022-11-09T03:29:35;12.00;;;4.20;;
68449;SDS011;55434;39.570;2.652;2022-11-09T03:32:00;13.10;;;4.17;;
68449;SDS011;55434;39.570;2.652;2022-11-09T03:34:26;18.98;;;4.78;;
68449;SDS011;55434;39.570;2.652;2022-11-09T03:36:52;13.60;;;4.83;;
68449;SDS011;55434;39.570;2.652;2022-11-09T03:39:18;16.38;;;5.07;;
68449;SDS011;55434;39.570;2.652;2022-11-09T03:41:43;17.57;;;5.30;;
68449;SDS011;55434;39.570;2.652;2022-11-09T03:44:09;14.00;;;4.97;;
68449;SDS011;55434;39.570;2.652;2022-11-09T03:46:35;15.97;;;4.93;;
68449;SDS011;55434;39.570;2.652;2022-11-09T03:49:00;11.75;;;5.15;;
68449;SDS011;55434;39.570;2.652;2022-11-09T03:51:26;18.80;;;4.90;;
68449;SDS011;55434;39.570;2.652;2022-11-09T03:53:52;12.68;;;4.88;;
68449;SDS011;55434;39.570;2.652;2022-11-09T03:56:17;13.47;;;5.47;;
68449;SDS011;55434;39.570;2.652;2022-11-09T03:58:43;13.02;;;4.90;;
68449;SDS011;55434;39.570;2.652;2022-11-09T04:01:09;16.20;;;5.17;;
68449;SDS011;55434;39.570;2.652;2022-11-09T04:03:35;15.98;;;4.90;;
68449;SDS011;55434;39.570;2.652;2022-11-09T04:06:01;16.85;;;5.43;;
68449;SDS011;55434;39.570;2.652;2022-11-09T04:08:27;14.43;;;5.07;;
68449;SDS011;55434;39.570;2.652;2022-11-09T04:10:52;13.27;;;5.15;;
68449;SDS011;55434;39.570;2.652;2022-11-09T04:13:18;14.47;;;4.73;;
68449;SDS011;55434;39.570;2.652;2022-11-09T04:15:44;16.40;;;4.90;;
68449;SDS011;55434;39.570;2.652;2022-11-09T04:18:13;17.35;;;4.40;;
68449;SDS011;55434;39.570;2.652;2022-11-09T04:20:40;19.67;;;5.63;;
68449;SDS011;55434;39.570;2.652;2022-11-09T04:23:07;12.73;;;4.53;;
68449;SDS011;55434;39.570;2.652;2022-11-09T04:25:36;13.90;;;4.55;;
68449;SDS011;55434;39.570;2.652;2022-11-09T04:28:04;14.00;;;4.28;;
68449;SDS011;55434;39.570;2.652;2022-11-09T04:30:31;11.23;;;4.22;;
68449;SDS011;55434;39.570;2.652;2022-11-09T04:32:58;15.18;;;5.28;;
68449;SDS011;55434;39.570;2.652;2022-11-09T04:35:25;16.37;;;4.97;;
68449;SDS011;55434;39.570;2.652;2022-11-09T04:40:23;15.38;;;4.78;;
68449;SDS011;55434;39.570;2.652;2022-11-09T04:42:49;12.50;;;4.10;;
68449;SDS011;55434;39.570;2.652;2022-11-09T04:45:15;19.30;;;5.40;;
68449;SDS011;55434;39.570;2.652;2022-11-09T04:47:41;12.30;;;5.07;;
68449;SDS011;55434;39.570;2.652;2022-11-09T04:50:07;15.05;;;5.22;;
68449;SDS011;55434;39.570;2.652;2022-11-09T04:52:33;18.97;;;5.13;;
68449;SDS011;55434;39.570;2.652;2022-11-09T04:54:59;16.92;;;4.95;;
68449;SDS011;55434;39.570;2.652;2022-11-09T04:57:24;16.70;;;4.97;;
68449;SDS011;55434;39.570;2.652;2022-11-09T04:59:50;13.55;;;4.35;;
68449;SDS011;55434;39.570;2.652;2022-11-09T05:02:15;14.37;;;5.33;;
68449;SDS011;55434;39.570;2.652;2022-11-09T05:04:41;15.10;;;4.60;;
68449;SDS011;55434;39.570;2.652;2022-11-09T05:07:07;15.30;;;4.80;;
68449;SDS011;55434;39.570;2.652;2022-11-09T05:09:32;16.77;;;4.90;;
68449;SDS011;55434;39.570;2.652;2022-11-09T05:11:58;14.83;;;5.20;;
68449;SDS011;55434;39.570;2.652;2022-11-09T05:14:23;16.92;;;5.30;;
68449;SDS011;55434;39.570;2.652;2022-11-09T05:16:49;16.13;;;5.70;;
68449;SDS011;55434;39.570;2.652;2022-11-09T05:19:15;12.40;;;4.90;;
68449;SDS011;55434;39.570;2.652;2022-11-09T05:21:40;13.88;;;5.10;;
68449;SDS011;55434;39.570;2.652;2022-11-09T05:24:06;13.45;;;4.47;;
68449;SDS011;55434;39.570;2.652;2022-11-09T05:26:39;12.40;;;5.67;;
68449;SDS011;55434;39.570;2.652;2022-11-09T05:29:07;13.80;;;5.43;;
68449;SDS011;55434;39.570;2.652;2022-11-09T05:31:34;15.77;;;5.10;;
68449;SDS011;55434;39.570;2.652;2022-11-09T05:34:00;17.17;;;5.38;;
68449;SDS011;55434;39.570;2.652;2022-11-09T05:36:26;18.48;;;5.32;;
68449;SDS011;55434;39.570;2.652;2022-11-09T05:38:53;12.30;;;5.00;;
68449;SDS011;55434;39.570;2.652;2022-11-09T05:41:19;14.70;;;5.63;;
68449;SDS011;55434;39.570;2.652;2022-11-09T05:43:45;13.93;;;5.65;;
68449;SDS011;55434;39.570;2.652;2022-11-09T05:46:12;15.45;;;5.55;;
68449;SDS011;55434;39.570;2.652;2022-11-09T05:48:39;11.43;;;5.57;;
68449;SDS011;55434;39.570;2.652;2022-11-09T05:51:06;13.63;;;5.47;;
68449;SDS011;55434;39.570;2.652;2022-11-09T05:53:32;10.82;;;5.30;;
68449;SDS011;55434;39.570;2.652;2022-11-09T05:56:05;12.68;;;5.18;;
68449;SDS011;55434;39.570;2.652;2022-11-09T05:58:33;14.13;;;4.83;;
68449;SDS011;55434;39.570;2.652;2022-11-09T06:01:07;15.52;;;6.38;;
68449;SDS011;55434;39.570;2.652;2022-11-09T06:03:34;15.32;;;6.07;;
68449;SDS011;55434;39.570;2.652;2022-11-09T06:06:01;12.00;;;5.23;;
68449;SDS011;55434;39.570;2.652;2022-11-09T06:08:28;15.80;;;5.77;;
68449;SDS011;55434;39.570;2.652;2022-11-09T06:11:01;14.90;;;5.68;;
68449;SDS011;55434;39.570;2.652;2022-11-09T06:13:28;18.75;;;5.90;;
68449;SDS011;55434;39.570;2.652;2022-11-09T06:15:55;17.33;;;5.97;;
68449;SDS011;55434;39.570;2.652;2022-11-09T06:18:22;19.02;;;5.80;;
68449;SDS011;55434;39.570;2.652;2022-11-09T06:20:52;14.43;;;6.13;;
68449;SDS011;55434;39.570;2.652;2022-11-09T06:23:19;18.08;;;5.32;;
68449;SDS011;55434;39.570;2.652;2022-11-09T06:25:55;15.32;;;5.65;;
68449;SDS011;55434;39.570;2.652;2022-11-09T06:28:21;21.00;;;5.30;;
68449;SDS011;55434;39.570;2.652;2022-11-09T06:30:47;21.10;;;6.77;;
68449;SDS011;55434;39.570;2.652;2022-11-09T06:33:13;18.98;;;6.28;;
68449;SDS011;55434;39.570;2.652;2022-11-09T06:35:39;12.50;;;6.23;;
68449;SDS011;55434;39.570;2.652;2022-11-09T06:38:07;15.27;;;6.18;;
68449;SDS011;55434;39.570;2.652;2022-11-09T06:40:33;17.60;;;6.30;;
68449;SDS011;55434;39.570;2.652;2022-11-09T06:43:01;16.40;;;6.43;;
68449;SDS011;55434;39.570;2.652;2022-11-09T06:45:28;18.73;;;7.10;;
68449;SDS011;55434;39.570;2.652;2022-11-09T06:47:55;15.27;;;6.70;;
68449;SDS011;55434;39.570;2.652;2022-11-09T06:50:25;14.55;;;5.50;;
68449;SDS011;55434;39.570;2.652;2022-11-09T06:52:56;14.82;;;6.18;;
68449;SDS011;55434;39.570;2.652;2022-11-09T06:55:23;17.75;;;5.40;;
68449;SDS011;55434;39.570;2.652;2022-11-09T06:57:50;23.27;;;6.10;;
68449;SDS011;55434;39.570;2.652;2022-11-09T07:00:15;18.98;;;5.85;;
68449;SDS011;55434;39.570;2.652;2022-11-09T07:02:41;18.35;;;6.15;;
68449;SDS011;55434;39.570;2.652;2022-11-09T07:05:07;17.15;;;6.95;;
68449;SDS011;55434;39.570;2.652;2022-11-09T07:07:33;19.80;;;6.40;;
68449;SDS011;55434;39.570;2.652;2022-11-09T07:09:59;17.20;;;6.20;;
68449;SDS011;55434;39.570;2.652;2022-11-09T07:12:24;16.30;;;6.40;;
68449;SDS011;55434;39.570;2.652;2022-11-09T07:14:50;15.83;;;6.10;;
68449;SDS011;55434;39.570;2.652;2022-11-09T07:17:16;16.90;;;7.10;;
68449;SDS011;55434;39.570;2.652;2022-11-09T07:19:41;20.13;;;6.00;;
68449;SDS011;55434;39.570;2.652;2022-11-09T07:22:07;16.37;;;6.60;;
68449;SDS011;55434;39.570;2.652;2022-11-09T07:24:33;16.65;;;5.80;;
68449;SDS011;55434;39.570;2.652;2022-11-09T07:26:58;35.90;;;7.63;;
68449;SDS011;55434;39.570;2.652;2022-11-09T07:29:24;20.20;;;6.75;;
68449;SDS011;55434;39.570;2.652;2022-11-09T07:31:49;18.67;;;6.23;;
68449;SDS011;55434;39.570;2.652;2022-11-09T07:34:15;27.67;;;7.27;;
68449;SDS011;55434;39.570;2.652;2022-11-09T07:36:41;25.30;;;7.40;;
68449;SDS011;55434;39.570;2.652;2022-11-09T07:39:06;16.27;;;6.23;;
68449;SDS011;55434;39.570;2.652;2022-11-09T07:41:32;17.75;;;6.53;;
68449;SDS011;55434;39.570;2.652;2022-11-09T07:43:57;17.50;;;6.50;;
68449;SDS011;55434;39.570;2.652;2022-11-09T07:46:23;21.45;;;7.45;;
68449;SDS011;55434;39.570;2.652;2022-11-09T07:48:49;21.33;;;6.80;;
68449;SDS011;55434;39.570;2.652;2022-11-09T07:51:14;22.00;;;7.18;;
68449;SDS011;55434;39.570;2.652;2022-11-09T07:53:40;19.43;;;6.93;;
68449;SDS011;55434;39.570;2.652;2022-11-09T07:56:06;30.37;;;7.33;;
68449;SDS011;55434;39.570;2.652;2022-11-09T07:58:32;19.63;;;6.20;;
68449;SDS011;55434;39.570;2.652;2022-11-09T08:01:00;24.13;;;6.15;;
68449;SDS011;55434;39.570;2.652;2022-11-09T08:03:26;26.98;;;7.50;;
68449;SDS011;55434;39.570;2.652;2022-11-09T08:05:52;25.53;;;7.57;;
68449;SDS011;55434;39.570;2.652;2022-11-09T08:08:20;15.95;;;7.07;;
68449;SDS011;55434;39.570;2.652;2022-11-09T08:10:46;23.52;;;6.85;;
68449;SDS011;55434;39.570;2.652;2022-11-09T08:13:16;22.93;;;7.80;;
68449;SDS011;55434;39.570;2.652;2022-11-09T08:15:42;21.67;;;7.03;;
68449;SDS011;55434;39.570;2.652;2022-11-09T08:18:11;25.08;;;6.07;;
68449;SDS011;55434;39.570;2.652;2022-11-09T08:20:39;14.80;;;5.32;;
68449;SDS011;55434;39.570;2.652;2022-11-09T08:23:05;14.43;;;4.60;;
68449;SDS011;55434;39.570;2.652;2022-11-09T08:25:34;13.93;;;5.40;;
68449;SDS011;55434;39.570;2.652;2022-11-09T08:28:00;18.02;;;4.25;;
68449;SDS011;55434;39.570;2.652;2022-11-09T08:30:27;11.27;;;3.92;;
68449;SDS011;55434;39.570;2.652;2022-11-09T08:32:57;17.70;;;5.23;;
68449;SDS011;55434;39.570;2.652;2022-11-09T08:35:24;14.30;;;4.38;;
68449;SDS011;55434;39.570;2.652;2022-11-09T08:37:50;18.95;;;5.47;;
68449;SDS011;55434;39.570;2.652;2022-11-09T08:40:18;13.10;;;4.32;;
68449;SDS011;55434;39.570;2.652;2022-11-09T08:42:47;16.65;;;4.70;;
68449;SDS011;55434;39.570;2.652;2022-11-09T08:45:13;17.43;;;4.67;;
68449;SDS011;55434;39.570;2.652;2022-11-09T08:47:39;12.68;;;4.15;;
68449;SDS011;55434;39.570;2.652;2022-11-09T08:50:14;18.52;;;4.60;;
68449;SDS011;55434;39.570;2.652;2022-11-09T08:52:40;17.77;;;4.18;;
68449;SDS011;55434;39.570;2.652;2022-11-09T08:55:06;11.80;;;3.67;;
68449;SDS011;55434;39.570;2.652;2022-11-09T08:57:32;20.05;;;4.07;;
68449;SDS011;55434;39.570;2.652;2022-11-09T08:59:58;16.77;;;4.05;;
68449;SDS011;55434;39.570;2.652;2022-11-09T09:02:24;12.20;;;3.63;;
68449;SDS011;55434;39.570;2.652;2022-11-09T09:04:49;15.17;;;3.30;;
68449;SDS011;55434;39.570;2.652;2022-11-09T09:07:15;16.73;;;3.25;;
68449;SDS011;55434;39.570;2.652;2022-11-09T09:09:40;10.80;;;3.13;;
68449;SDS011;55434;39.570;2.652;2022-11-09T09:12:07;11.82;;;3.25;;
68449;SDS011;55434;39.570;2.652;2022-11-09T09:14:33;13.53;;;3.10;;
68449;SDS011;55434;39.570;2.652;2022-11-09T09:17:00;11.75;;;3.13;;
68449;SDS011;55434;39.570;2.652;2022-11-09T09:19:26;14.00;;;3.22;;
68449;SDS011;55434;39.570;2.652;2022-11-09T09:21:51;10.60;;;2.43;;
68449;SDS011;55434;39.570;2.652;2022-11-09T09:24:17;13.55;;;2.30;;
68449;SDS011;55434;39.570;2.652;2022-11-09T09:26:43;10.93;;;2.43;;
68449;SDS011;55434;39.570;2.652;2022-11-09T09:29:10;11.77;;;2.72;;
68449;SDS011;55434;39.570;2.652;2022-11-09T09:31:37;10.88;;;2.78;;
68449;SDS011;55434;39.570;2.652;2022-11-09T09:34:04;13.05;;;2.78;;
68449;SDS011;55434;39.570;2.652;2022-11-09T09:36:29;9.73;;;2.63;;
68449;SDS011;55434;39.570;2.652;2022-11-09T09:38:55;11.15;;;2.42;;
68449;SDS011;55434;39.570;2.652;2022-11-09T09:49:33;7.43;;;2.10;;
68449;SDS011;55434;39.570;2.652;2022-11-09T09:52:19;9.75;;;2.58;;
68449;SDS011;55434;39.570;2.652;2022-11-09T09:54:48;10.63;;;2.20;;
68449;SDS011;55434;39.570;2.652;2022-11-09T09:57:20;11.30;;;2.50;;
68449;SDS011;55434;39.570;2.652;2022-11-09T09:59:49;8.65;;;1.90;;
68449;SDS011;55434;39.570;2.652;2022-11-09T10:04:47;10.38;;;1.67;;
68449;SDS011;55434;39.570;2.652;2022-11-09T10:10:11;6.72;;;1.65;;
68449;SDS011;55434;39.570;2.652;2022-11-09T10:18:11;8.25;;;2.30;;
68449;SDS011;55434;39.570;2.652;2022-11-09T10:26:37;8.18;;;3.00;;
68449;SDS011;55434;39.570;2.652;2022-11-09T10:29:14;9.05;;;2.70;;
68449;SDS011;55434;39.570;2.652;2022-11-09T10:31:45;9.05;;;3.15;;
68449;SDS011;55434;39.570;2.652;2022-11-09T10:34:16;12.07;;;2.73;;
68449;SDS011;55434;39.570;2.652;2022-11-09T10:36:58;8.45;;;2.05;;
68449;SDS011;55434;39.570;2.652;2022-11-09T10:39:40;8.05;;;2.50;;
68449;SDS011;55434;39.570;2.652;2022-11-09T10:42:22;9.18;;;2.08;;
68449;SDS011;55434;39.570;2.652;2022-11-09T10:44:53;11.10;;;2.00;;
68449;SDS011;55434;39.570;2.652;2022-11-09T10:47:19;8.37;;;2.53;;
68449;SDS011;55434;39.570;2.652;2022-11-09T10:50:02;8.23;;;2.25;;
68449;SDS011;55434;39.570;2.652;2022-11-09T10:52:56;10.93;;;3.00;;
68449;SDS011;55434;39.570;2.652;2022-11-09T10:55:33;6.32;;;2.53;;
68449;SDS011;55434;39.570;2.652;2022-11-09T10:58:14;10.30;;;2.72;;
68449;SDS011;55434;39.570;2.652;2022-11-09T11:00:55;5.53;;;1.90;;
68449;SDS011;55434;39.570;2.652;2022-11-09T11:03:24;7.47;;;2.50;;
68449;SDS011;55434;39.570;2.652;2022-11-09T11:05:58;10.75;;;3.42;;
68449;SDS011;55434;39.570;2.652;2022-11-09T11:08:33;8.20;;;1.88;;
68449;SDS011;55434;39.570;2.652;2022-11-09T11:11:05;8.55;;;2.22;;
68449;SDS011;55434;39.570;2.652;2022-11-09T11:13:46;6.23;;;1.87;;
68449;SDS011;55434;39.570;2.652;2022-11-09T11:16:31;10.68;;;2.38;;
68449;SDS011;55434;39.570;2.652;2022-11-09T11:18:58;8.05;;;2.65;;
68449;SDS011;55434;39.570;2.652;2022-11-09T11:21:24;7.82;;;1.90;;
68449;SDS011;55434;39.570;2.652;2022-11-09T11:26:58;8.80;;;3.08;;
68449;SDS011;55434;39.570;2.652;2022-11-09T11:29:49;21.95;;;3.58;;
68449;SDS011;55434;39.570;2.652;2022-11-09T11:32:25;8.70;;;2.33;;
68449;SDS011;55434;39.570;2.652;2022-11-09T11:34:51;12.40;;;3.30;;
68449;SDS011;55434;39.570;2.652;2022-11-09T11:40:04;10.90;;;2.70;;
68449;SDS011;55434;39.570;2.652;2022-11-09T11:42:41;8.10;;;2.72;;
68449;SDS011;55434;39.570;2.652;2022-11-09T11:45:28;9.27;;;2.57;;
68449;SDS011;55434;39.570;2.652;2022-11-09T11:50:50;6.80;;;2.60;;
68449;SDS011;55434;39.570;2.652;2022-11-09T12:01:35;11.63;;;2.47;;
68449;SDS011;55434;39.570;2.652;2022-11-09T12:19:02;8.50;;;2.40;;
68449;SDS011;55434;39.570;2.652;2022-11-09T12:21:38;9.02;;;3.13;;
68449;SDS011;55434;39.570;2.652;2022-11-09T12:31:52;8.05;;;3.10;;
68449;SDS011;55434;39.570;2.652;2022-11-09T12:34:32;8.27;;;2.75;;
68449;SDS011;55434;39.570;2.652;2022-11-09T12:37:12;7.75;;;3.25;;
68449;SDS011;55434;39.570;2.652;2022-11-09T12:39:53;9.50;;;3.70;;
68449;SDS011;55434;39.570;2.652;2022-11-09T12:42:45;11.27;;;3.15;;
68449;SDS011;55434;39.570;2.652;2022-11-09T12:48:10;7.53;;;2.58;;
68449;SDS011;55434;39.570;2.652;2022-11-09T12:50:44;9.57;;;3.30;;
68449;SDS011;55434;39.570;2.652;2022-11-09T12:53:10;7.33;;;2.53;;
68449;SDS011;55434;39.570;2.652;2022-11-09T12:55:48;11.10;;;3.05;;
68449;SDS011;55434;39.570;2.652;2022-11-09T12:58:23;7.80;;;3.03;;
68449;SDS011;55434;39.570;2.652;2022-11-09T13:00:57;10.23;;;3.10;;
68449;SDS011;55434;39.570;2.652;2022-11-09T13:03:32;11.80;;;3.55;;
68449;SDS011;55434;39.570;2.652;2022-11-09T13:06:08;6.70;;;2.10;;
68449;SDS011;55434;39.570;2.652;2022-11-09T13:08:34;8.38;;;3.15;;
68449;SDS011;55434;39.570;2.652;2022-11-09T13:11:18;12.07;;;4.40;;
68449;SDS011;55434;39.570;2.652;2022-11-09T13:13:47;5.55;;;2.30;;
68449;SDS011;55434;39.570;2.652;2022-11-09T13:18:48;8.27;;;2.45;;
68449;SDS011;55434;39.570;2.652;2022-11-09T13:23:48;8.73;;;3.45;;
68449;SDS011;55434;39.570;2.652;2022-11-09T13:34:50;9.18;;;3.15;;
68449;SDS011;55434;39.570;2.652;2022-11-09T13:43:34;10.93;;;3.60;;
68449;SDS011;55434;39.570;2.652;2022-11-09T13:46:03;6.70;;;2.45;;
68449;SDS011;55434;39.570;2.652;2022-11-09T13:48:47;9.35;;;4.38;;
68449;SDS011;55434;39.570;2.652;2022-11-09T13:51:19;6.13;;;2.75;;
68449;SDS011;55434;39.570;2.652;2022-11-09T13:54:03;6.88;;;2.53;;
68449;SDS011;55434;39.570;2.652;2022-11-09T13:59:15;29.27;;;12.30;;
68449;SDS011;55434;39.570;2.652;2022-11-09T14:02:01;10.85;;;3.47;;
68449;SDS011;55434;39.570;2.652;2022-11-09T14:04:35;7.80;;;3.00;;
68449;SDS011;55434;39.570;2.652;2022-11-09T14:07:09;8.00;;;3.08;;
68449;SDS011;55434;39.570;2.652;2022-11-09T14:23:45;12.25;;;3.03;;
68449;SDS011;55434;39.570;2.652;2022-11-09T14:26:16;11.90;;;4.15;;
68449;SDS011;55434;39.570;2.652;2022-11-09T14:28:44;12.32;;;4.13;;
68449;SDS011;55434;39.570;2.652;2022-11-09T14:31:28;11.77;;;2.42;;
68449;SDS011;55434;39.570;2.652;2022-11-09T14:34:01;6.27;;;1.67;;
68449;SDS011;55434;39.570;2.652;2022-11-09T14:36:48;7.30;;;2.10;;
68449;SDS011;55434;39.570;2.652;2022-11-09T14:39:30;6.88;;;2.20;;
68449;SDS011;55434;39.570;2.652;2022-11-09T14:41:59;9.40;;;2.28;;
68449;SDS011;55434;39.570;2.652;2022-11-09T14:44:29;6.50;;;1.93;;
68449;SDS011;55434;39.570;2.652;2022-11-09T14:47:04;12.95;;;2.33;;
68449;SDS011;55434;39.570;2.652;2022-11-09T14:49:34;8.57;;;2.90;;
68449;SDS011;55434;39.570;2.652;2022-11-09T14:52:00;6.22;;;2.13;;
68449;SDS011;55434;39.570;2.652;2022-11-09T14:54:35;9.30;;;1.90;;
68449;SDS011;55434;39.570;2.652;2022-11-09T14:57:10;11.07;;;2.47;;
68449;SDS011;55434;39.570;2.652;2022-11-09T14:59:44;21.65;;;3.15;;
68449;SDS011;55434;39.570;2.652;2022-11-09T15:02:17;11.82;;;2.42;;
68449;SDS011;55434;39.570;2.652;2022-11-09T15:07:27;14.57;;;2.95;;
68449;SDS011;55434;39.570;2.652;2022-11-09T15:09:57;18.17;;;2.10;;
68449;SDS011;55434;39.570;2.652;2022-11-09T15:12:25;11.25;;;2.20;;
68449;SDS011;55434;39.570;2.652;2022-11-09T15:15:03;8.27;;;2.20;;
68449;SDS011;55434;39.570;2.652;2022-11-09T15:17:31;9.95;;;2.20;;
68449;SDS011;55434;39.570;2.652;2022-11-09T15:20:21;10.05;;;2.30;;
68449;SDS011;55434;39.570;2.652;2022-11-09T15:22:52;7.25;;;1.88;;
68449;SDS011;55434;39.570;2.652;2022-11-09T15:27:55;7.40;;;2.20;;
68449;SDS011;55434;39.570;2.652;2022-11-09T15:30:33;8.15;;;1.98;;
68449;SDS011;55434;39.570;2.652;2022-11-09T15:36:16;6.78;;;2.00;;
68449;SDS011;55434;39.570;2.652;2022-11-09T15:41:22;7.55;;;1.75;;
68449;SDS011;55434;39.570;2.652;2022-11-09T15:43:48;9.25;;;1.50;;
68449;SDS011;55434;39.570;2.652;2022-11-09T15:46:15;13.43;;;2.20;;
68449;SDS011;55434;39.570;2.652;2022-11-09T15:48:42;8.95;;;2.33;;
68449;SDS011;55434;39.570;2.652;2022-11-09T15:51:12;9.07;;;2.00;;
68449;SDS011;55434;39.570;2.652;2022-11-09T15:53:38;7.93;;;1.83;;
68449;SDS011;55434;39.570;2.652;2022-11-09T15:56:04;7.78;;;1.67;;
68449;SDS011;55434;39.570;2.652;2022-11-09T15:58:30;8.90;;;2.00;;
68449;SDS011;55434;39.570;2.652;2022-11-09T16:00:56;14.13;;;1.92;;
68449;SDS011;55434;39.570;2.652;2022-11-09T16:03:22;11.30;;;1.67;;
68449;SDS011;55434;39.570;2.652;2022-11-09T16:05:47;8.57;;;1.90;;
68449;SDS011;55434;39.570;2.652;2022-11-09T16:08:13;10.23;;;2.30;;
68449;SDS011;55434;39.570;2.652;2022-11-09T16:10:39;11.23;;;2.50;;
68449;SDS011;55434;39.570;2.652;2022-11-09T16:13:06;11.02;;;2.15;;
68449;SDS011;55434;39.570;2.652;2022-11-09T16:15:40;11.75;;;2.20;;
68449;SDS011;55434;39.570;2.652;2022-11-09T16:18:05;11.93;;;2.50;;
68449;SDS011;55434;39.570;2.652;2022-11-09T16:20:31;12.68;;;2.70;;
68449;SDS011;55434;39.570;2.652;2022-11-09T16:22:57;8.80;;;1.97;;
68449;SDS011;55434;39.570;2.652;2022-11-09T16:25:23;6.78;;;2.00;;
68449;SDS011;55434;39.570;2.652;2022-11-09T16:27:50;10.20;;;1.98;;
68449;SDS011;55434;39.570;2.652;2022-11-09T16:30:16;9.47;;;1.77;;
68449;SDS011;55434;39.570;2.652;2022-11-09T16:32:43;7.63;;;2.00;;
68449;SDS011;55434;39.570;2.652;2022-11-09T16:35:09;8.38;;;1.83;;
68449;SDS011;55434;39.570;2.652;2022-11-09T16:37:35;7.47;;;2.03;;
68449;SDS011;55434;39.570;2.652;2022-11-09T16:40:04;16.27;;;2.22;;
68449;SDS011;55434;39.570;2.652;2022-11-09T16:42:33;10.43;;;1.88;;
68449;SDS011;55434;39.570;2.652;2022-11-09T16:45:03;9.80;;;1.80;;